sensor_id;sensor_type;location;lat;lon;timestamp;P1;durP1;ratioP1;P2;durP2;ratioP2
15557;SDS011;7880;50.110;9.372;2024-03-08T00:01:36;26.446153846153837;;;10.976923076923075;;
15557;SDS011;7880;50.110;9.372;2024-03-08T00:06:44;19.269230769230766;;;11.153846153846157;;
15557;SDS011;7880;50.110;9.372;2024-03-08T00:11:53;21.02307692307692;;;11.261538461538457;;
15557;SDS011;7880;50.110;9.372;2024-03-08T00:16:54;24.96153846153847;;;11.630769230769229;;
15557;SDS011;7880;50.110;9.372;2024-03-08T00:21:51;24.5923076923077;;;12.461538461538463;;
15557;SDS011;7880;50.110;9.372;2024-03-08T00:26:56;34.31538461538461;;;15.0;;
15557;SDS011;7880;50.110;9.372;2024-03-08T00:31:58;33.969230769230755;;;17.099999999999998;;
15557;SDS011;7880;50.110;9.372;2024-03-08T00:37:00;62.830769230769256;;;26.2923076923077;;
15557;SDS011;7880;50.110;9.372;2024-03-08T00:42:03;46.79230769230771;;;21.276923076923076;;
15557;SDS011;7880;50.110;9.372;2024-03-08T00:47:05;39.63076923076923;;;17.661538461538463;;
15557;SDS011;7880;50.110;9.372;2024-03-08T00:52:18;30.85384615384616;;;14.715384615384616;;
15557;SDS011;7880;50.110;9.372;2024-03-08T00:57:12;24.184615384615384;;;13.546153846153844;;
15557;SDS011;7880;50.110;9.372;2024-03-08T01:02:19;25.88461538461538;;;13.761538461538455;;
15557;SDS011;7880;50.110;9.372;2024-03-08T01:07:18;28.62307692307692;;;14.161538461538461;;
15557;SDS011;7880;50.110;9.372;2024-03-08T01:12:29;26.453846153846147;;;14.546153846153853;;
15557;SDS011;7880;50.110;9.372;2024-03-08T01:17:26;27.64615384615384;;;13.800000000000002;;
15557;SDS011;7880;50.110;9.372;2024-03-08T01:22:32;26.86923076923077;;;13.653846153846157;;
15557;SDS011;7880;50.110;9.372;2024-03-08T01:27:42;25.776923076923065;;;14.17692307692308;;
15557;SDS011;7880;50.110;9.372;2024-03-08T01:32:33;27.446153846153837;;;14.300000000000002;;
15557;SDS011;7880;50.110;9.372;2024-03-08T01:37:34;26.861538461538455;;;13.661538461538463;;
15557;SDS011;7880;50.110;9.372;2024-03-08T01:42:37;29.5;;;15.17692307692308;;
15557;SDS011;7880;50.110;9.372;2024-03-08T01:47:39;24.338461538461537;;;14.076923076923073;;
15557;SDS011;7880;50.110;9.372;2024-03-08T01:52:46;25.38461538461538;;;14.038461538461537;;
15557;SDS011;7880;50.110;9.372;2024-03-08T01:57:44;24.1;;;14.800000000000002;;
15557;SDS011;7880;50.110;9.372;2024-03-08T02:02:46;28.092307692307706;;;15.223076923076919;;
15557;SDS011;7880;50.110;9.372;2024-03-08T02:07:57;26.807692307692307;;;14.35384615384616;;
15557;SDS011;7880;50.110;9.372;2024-03-08T02:12:54;27.438461538461546;;;13.869230769230771;;
15557;SDS011;7880;50.110;9.372;2024-03-08T02:17:55;27.46923076923076;;;14.0;;
15557;SDS011;7880;50.110;9.372;2024-03-08T02:22:59;26.26153846153846;;;14.300000000000002;;
15557;SDS011;7880;50.110;9.372;2024-03-08T02:28:04;26.40769230769231;;;13.56153846153846;;
15557;SDS011;7880;50.110;9.372;2024-03-08T02:33:06;26.553846153846163;;;14.453846153846147;;
15557;SDS011;7880;50.110;9.372;2024-03-08T02:38:13;26.80000000000001;;;14.492307692307694;;
15557;SDS011;7880;50.110;9.372;2024-03-08T02:43:15;28.699999999999992;;;16.0;;
15557;SDS011;7880;50.110;9.372;2024-03-08T02:48:17;27.93076923076923;;;14.261538461538455;;
15557;SDS011;7880;50.110;9.372;2024-03-08T02:53:20;26.084615384615372;;;14.838461538461539;;
15557;SDS011;7880;50.110;9.372;2024-03-08T02:58:24;24.353846153846145;;;14.03076923076923;;
15557;SDS011;7880;50.110;9.372;2024-03-08T03:03:47;27.56153846153847;;;14.484615384615381;;
15557;SDS011;7880;50.110;9.372;2024-03-08T03:08:32;27.04615384615385;;;15.099999999999996;;
15557;SDS011;7880;50.110;9.372;2024-03-08T03:12:40;32.89999999999999;;;18.069230769230764;;
15557;SDS011;7880;50.110;9.372;2024-03-08T03:17:45;27.899999999999995;;;15.400000000000004;;
15557;SDS011;7880;50.110;9.372;2024-03-08T03:22:52;28.869230769230775;;;15.930769230769233;;
15557;SDS011;7880;50.110;9.372;2024-03-08T03:28:02;29.776923076923065;;;14.876923076923076;;
15557;SDS011;7880;50.110;9.372;2024-03-08T03:32:57;31.76153846153846;;;13.353846153846153;;
15557;SDS011;7880;50.110;9.372;2024-03-08T03:38:06;26.507692307692302;;;15.06153846153846;;
15557;SDS011;7880;50.110;9.372;2024-03-08T03:42:59;30.899999999999995;;;15.638461538461533;;
15557;SDS011;7880;50.110;9.372;2024-03-08T03:48:01;27.838461538461534;;;14.61538461538462;;
15557;SDS011;7880;50.110;9.372;2024-03-08T03:53:03;27.26153846153846;;;14.61538461538462;;
15557;SDS011;7880;50.110;9.372;2024-03-08T03:58:05;32.584615384615375;;;14.67692307692308;;
15557;SDS011;7880;50.110;9.372;2024-03-08T04:03:19;25.87692307692308;;;14.576923076923073;;
15557;SDS011;7880;50.110;9.372;2024-03-08T04:08:13;32.246153846153845;;;15.699999999999998;;
15557;SDS011;7880;50.110;9.372;2024-03-08T04:13:17;28.215384615384604;;;16.238461538461543;;
15557;SDS011;7880;50.110;9.372;2024-03-08T04:18:21;30.392307692307686;;;15.800000000000002;;
15557;SDS011;7880;50.110;9.372;2024-03-08T04:23:28;33.823076923076925;;;15.953846153846156;;
15557;SDS011;7880;50.110;9.372;2024-03-08T04:28:28;25.946153846153837;;;14.300000000000002;;
15557;SDS011;7880;50.110;9.372;2024-03-08T04:33:36;25.576923076923073;;;14.138461538461533;;
15557;SDS011;7880;50.110;9.372;2024-03-08T04:38:41;30.73846153846154;;;14.915384615384612;;
15557;SDS011;7880;50.110;9.372;2024-03-08T04:43:44;29.90769230769231;;;14.5;;
15557;SDS011;7880;50.110;9.372;2024-03-08T04:48:42;27.23846153846154;;;15.699999999999998;;
15557;SDS011;7880;50.110;9.372;2024-03-08T04:53:43;30.26923076923076;;;15.361538461538467;;
15557;SDS011;7880;50.110;9.372;2024-03-08T04:58:46;32.2923076923077;;;15.630769230769232;;
15557;SDS011;7880;50.110;9.372;2024-03-08T05:03:54;30.607692307692318;;;16.27692307692308;;
15557;SDS011;7880;50.110;9.372;2024-03-08T05:08:56;27.323076923076925;;;14.415384615384612;;
15557;SDS011;7880;50.110;9.372;2024-03-08T05:14:05;32.93076923076923;;;15.207692307692305;;
15557;SDS011;7880;50.110;9.372;2024-03-08T05:19:06;27.030769230769238;;;14.300000000000002;;
15557;SDS011;7880;50.110;9.372;2024-03-08T05:24:21;30.25384615384615;;;15.67692307692308;;
15557;SDS011;7880;50.110;9.372;2024-03-08T05:29:14;28.146153846153844;;;15.67692307692308;;
15557;SDS011;7880;50.110;9.372;2024-03-08T05:34:18;26.823076923076922;;;15.015384615384612;;
15557;SDS011;7880;50.110;9.372;2024-03-08T05:39:20;27.007692307692306;;;15.11538461538462;;
15557;SDS011;7880;50.110;9.372;2024-03-08T05:44:19;29.76153846153846;;;14.900000000000004;;
15557;SDS011;7880;50.110;9.372;2024-03-08T05:49:21;38.17692307692308;;;16.861538461538466;;
15557;SDS011;7880;50.110;9.372;2024-03-08T05:54:24;30.007692307692313;;;15.369230769230771;;
15557;SDS011;7880;50.110;9.372;2024-03-08T05:59:27;30.684615384615388;;;15.584615384615388;;
15557;SDS011;7880;50.110;9.372;2024-03-08T06:04:32;28.184615384615388;;;15.43846153846154;;
15557;SDS011;7880;50.110;9.372;2024-03-08T06:09:41;33.36923076923077;;;16.900000000000002;;
15557;SDS011;7880;50.110;9.372;2024-03-08T06:14:39;31.669230769230783;;;16.915384615384614;;
15557;SDS011;7880;50.110;9.372;2024-03-08T06:19:42;31.97692307692309;;;15.876923076923076;;
15557;SDS011;7880;50.110;9.372;2024-03-08T06:24:45;29.184615384615388;;;16.16153846153846;;
15557;SDS011;7880;50.110;9.372;2024-03-08T06:29:55;29.46923076923076;;;14.853846153846153;;
15557;SDS011;7880;50.110;9.372;2024-03-08T06:34:51;31.315384615384612;;;17.23846153846154;;
15557;SDS011;7880;50.110;9.372;2024-03-08T06:39:55;25.969230769230776;;;14.800000000000002;;
15557;SDS011;7880;50.110;9.372;2024-03-08T06:45:05;30.36153846153847;;;16.800000000000004;;
15557;SDS011;7880;50.110;9.372;2024-03-08T06:50:01;30.253846153846155;;;15.800000000000002;;
15557;SDS011;7880;50.110;9.372;2024-03-08T06:55:21;31.561538461538458;;;15.476923076923075;;
15557;SDS011;7880;50.110;9.372;2024-03-08T07:00:18;29.653846153846146;;;15.815384615384618;;
15557;SDS011;7880;50.110;9.372;2024-03-08T07:05:10;28.176923076923078;;;15.138461538461533;;
15557;SDS011;7880;50.110;9.372;2024-03-08T07:10:14;31.692307692307693;;;15.838461538461539;;
15557;SDS011;7880;50.110;9.372;2024-03-08T07:15:16;37.08461538461539;;;17.13076923076923;;
15557;SDS011;7880;50.110;9.372;2024-03-08T07:20:19;28.600000000000005;;;15.43846153846154;;
15557;SDS011;7880;50.110;9.372;2024-03-08T07:25:22;30.04615384615385;;;18.96153846153846;;
15557;SDS011;7880;50.110;9.372;2024-03-08T07:31:08;31.938461538461546;;;16.192307692307693;;
15557;SDS011;7880;50.110;9.372;2024-03-08T07:35:47;33.34615384615384;;;16.75384615384615;;
15557;SDS011;7880;50.110;9.372;2024-03-08T07:40:52;29.276923076923065;;;15.838461538461539;;
15557;SDS011;7880;50.110;9.372;2024-03-08T07:45:55;31.715384615384604;;;16.67692307692308;;
15557;SDS011;7880;50.110;9.372;2024-03-08T07:50:57;30.13846153846153;;;16.199999999999996;;
15557;SDS011;7880;50.110;9.372;2024-03-08T07:55:58;28.676923076923078;;;15.338461538461539;;
15557;SDS011;7880;50.110;9.372;2024-03-08T08:01:02;32.82307692307692;;;16.93846153846154;;
15557;SDS011;7880;50.110;9.372;2024-03-08T08:06:04;28.053846153846163;;;15.838461538461539;;
15557;SDS011;7880;50.110;9.372;2024-03-08T08:11:11;23.930769230769233;;;14.43846153846154;;
15557;SDS011;7880;50.110;9.372;2024-03-08T08:14:53;31.961538461538467;;;18.130769230769225;;
15557;SDS011;7880;50.110;9.372;2024-03-08T08:19:52;26.846153846153854;;;14.099999999999996;;
15557;SDS011;7880;50.110;9.372;2024-03-08T08:24:54;27.469230769230776;;;15.300000000000002;;
15557;SDS011;7880;50.110;9.372;2024-03-08T08:29:59;25.87692307692308;;;14.5;;
15557;SDS011;7880;50.110;9.372;2024-03-08T08:35:02;26.66153846153845;;;14.5;;
15557;SDS011;7880;50.110;9.372;2024-03-08T08:40:06;27.107692307692297;;;14.0;;
15557;SDS011;7880;50.110;9.372;2024-03-08T08:45:04;25.584615384615372;;;13.300000000000002;;
15557;SDS011;7880;50.110;9.372;2024-03-08T08:50:06;26.076923076923073;;;13.576923076923073;;
15557;SDS011;7880;50.110;9.372;2024-03-08T08:55:14;26.153846153846146;;;15.015384615384612;;
15557;SDS011;7880;50.110;9.372;2024-03-08T09:00:15;28.68461538461539;;;14.253846153846153;;
15557;SDS011;7880;50.110;9.372;2024-03-08T09:05:19;21.715384615384608;;;12.676923076923078;;
15557;SDS011;7880;50.110;9.372;2024-03-08T09:10:19;23.730769230769234;;;13.076923076923073;;
15557;SDS011;7880;50.110;9.372;2024-03-08T09:15:28;23.323076923076925;;;12.823076923076924;;
15557;SDS011;7880;50.110;9.372;2024-03-08T09:20:29;26.353846153846145;;;13.199999999999998;;
15557;SDS011;7880;50.110;9.372;2024-03-08T09:25:28;23.723076923076917;;;13.0;;
15557;SDS011;7880;50.110;9.372;2024-03-08T09:30:30;20.853846153846153;;;11.630769230769229;;
15557;SDS011;7880;50.110;9.372;2024-03-08T09:35:32;21.46153846153847;;;11.83076923076923;;
15557;SDS011;7880;50.110;9.372;2024-03-08T09:40:35;21.630769230769225;;;12.530769230769229;;
15557;SDS011;7880;50.110;9.372;2024-03-08T09:45:41;24.469230769230762;;;12.3;;
15557;SDS011;7880;50.110;9.372;2024-03-08T09:50:50;20.561538461538458;;;11.530769230769229;;
15557;SDS011;7880;50.110;9.372;2024-03-08T09:55:49;21.707692307692312;;;12.0;;
15557;SDS011;7880;50.110;9.372;2024-03-08T10:00:51;19.699999999999996;;;12.00769230769231;;
15557;SDS011;7880;50.110;9.372;2024-03-08T10:05:54;22.04615384615384;;;11.569230769230767;;
15557;SDS011;7880;50.110;9.372;2024-03-08T10:10:58;17.82307692307692;;;11.16923076923077;;
15557;SDS011;7880;50.110;9.372;2024-03-08T10:16:06;20.569230769230767;;;12.430769230769233;;
15557;SDS011;7880;50.110;9.372;2024-03-08T10:21:04;19.576923076923077;;;10.969230769230771;;
15557;SDS011;7880;50.110;9.372;2024-03-08T10:26:14;21.023076923076925;;;11.461538461538462;;
15557;SDS011;7880;50.110;9.372;2024-03-08T10:31:11;18.161538461538463;;;10.900000000000004;;
15557;SDS011;7880;50.110;9.372;2024-03-08T10:36:14;17.599999999999998;;;10.769230769230765;;
15557;SDS011;7880;50.110;9.372;2024-03-08T10:41:23;16.5;;;10.569230769230769;;
15557;SDS011;7880;50.110;9.372;2024-03-08T10:46:26;19.361538461538462;;;10.092307692307694;;
15557;SDS011;7880;50.110;9.372;2024-03-08T10:51:26;24.223076923076924;;;10.607692307692307;;
15557;SDS011;7880;50.110;9.372;2024-03-08T10:56:29;20.938461538461542;;;12.3;;
15557;SDS011;7880;50.110;9.372;2024-03-08T11:01:32;19.369230769230764;;;9.992307692307692;;
15557;SDS011;7880;50.110;9.372;2024-03-08T11:06:41;18.03846153846154;;;10.099999999999998;;
15557;SDS011;7880;50.110;9.372;2024-03-08T11:11:42;21.192307692307693;;;11.592307692307692;;
15557;SDS011;7880;50.110;9.372;2024-03-08T11:16:43;18.56923076923077;;;10.900000000000004;;
15557;SDS011;7880;50.110;9.372;2024-03-08T11:21:47;20.300000000000004;;;12.0;;
15557;SDS011;7880;50.110;9.372;2024-03-08T11:26:49;19.56923076923077;;;11.3;;
15557;SDS011;7880;50.110;9.372;2024-03-08T11:32:03;20.300000000000004;;;11.2;;
15557;SDS011;7880;50.110;9.372;2024-03-08T11:36:56;21.576923076923077;;;14.669230769230769;;
15557;SDS011;7880;50.110;9.372;2024-03-08T11:42:00;24.584615384615386;;;13.569230769230767;;
15557;SDS011;7880;50.110;9.372;2024-03-08T11:47:07;19.115384615384617;;;11.469230769230771;;
15557;SDS011;7880;50.110;9.372;2024-03-08T11:52:10;22.738461538461543;;;13.300000000000002;;
15557;SDS011;7880;50.110;9.372;2024-03-08T11:57:11;22.146153846153855;;;12.369230769230775;;
15557;SDS011;7880;50.110;9.372;2024-03-08T12:02:15;22.146153846153855;;;12.8;;
15557;SDS011;7880;50.110;9.372;2024-03-08T12:07:19;21.853846153846145;;;11.89230769230769;;
15557;SDS011;7880;50.110;9.372;2024-03-08T12:12:18;22.199999999999992;;;12.530769230769229;;
15557;SDS011;7880;50.110;9.372;2024-03-08T12:17:26;18.538461538461537;;;11.099999999999996;;
15557;SDS011;7880;50.110;9.372;2024-03-08T12:22:27;21.9;;;13.0;;
15557;SDS011;7880;50.110;9.372;2024-03-08T12:27:30;22.807692307692317;;;12.8;;
15557;SDS011;7880;50.110;9.372;2024-03-08T12:32:32;24.130769230769236;;;12.061538461538458;;
15557;SDS011;7880;50.110;9.372;2024-03-08T12:37:35;23.33846153846154;;;12.5;;
15557;SDS011;7880;50.110;9.372;2024-03-08T12:42:38;20.33846153846154;;;11.230769230769235;;
15557;SDS011;7880;50.110;9.372;2024-03-08T12:47:42;18.438461538461542;;;11.400000000000004;;
15557;SDS011;7880;50.110;9.372;2024-03-08T12:52:41;18.66153846153846;;;11.36153846153846;;
15557;SDS011;7880;50.110;9.372;2024-03-08T12:57:53;19.038461538461537;;;11.230769230769235;;
15557;SDS011;7880;50.110;9.372;2024-03-08T13:02:51;19.61538461538462;;;11.076923076923075;;
15557;SDS011;7880;50.110;9.372;2024-03-08T13:07:57;21.66923076923077;;;11.5;;
15557;SDS011;7880;50.110;9.372;2024-03-08T13:12:58;17.584615384615383;;;10.56153846153846;;
15557;SDS011;7880;50.110;9.372;2024-03-08T13:16:59;20.338461538461544;;;12.47692307692308;;
15557;SDS011;7880;50.110;9.372;2024-03-08T13:22:04;18.5;;;10.400000000000002;;
15557;SDS011;7880;50.110;9.372;2024-03-08T13:27:16;19.561538461538458;;;11.230769230769235;;
15557;SDS011;7880;50.110;9.372;2024-03-08T13:32:11;16.76153846153846;;;11.192307692307692;;
15557;SDS011;7880;50.110;9.372;2024-03-08T13:37:16;20.307692307692314;;;11.400000000000004;;
15557;SDS011;7880;50.110;9.372;2024-03-08T13:42:16;16.49230769230769;;;10.36153846153846;;
15557;SDS011;7880;50.110;9.372;2024-03-08T13:47:17;18.561538461538458;;;11.230769230769235;;
15557;SDS011;7880;50.110;9.372;2024-03-08T13:52:22;20.27692307692308;;;9.700000000000001;;
15557;SDS011;7880;50.110;9.372;2024-03-08T13:57:27;18.792307692307695;;;11.430769230769233;;
15557;SDS011;7880;50.110;9.372;2024-03-08T14:02:31;16.938461538461542;;;10.36923076923077;;
15557;SDS011;7880;50.110;9.372;2024-03-08T14:07:34;16.138461538461534;;;9.838461538461539;;
15557;SDS011;7880;50.110;9.372;2024-03-08T14:12:38;15.838461538461537;;;8.861538461538462;;
15557;SDS011;7880;50.110;9.372;2024-03-08T14:17:39;15.77692307692308;;;9.33076923076923;;
15557;SDS011;7880;50.110;9.372;2024-03-08T14:22:55;13.699999999999998;;;9.269230769230768;;
15557;SDS011;7880;50.110;9.372;2024-03-08T14:27:46;13.123076923076924;;;9.0;;
15557;SDS011;7880;50.110;9.372;2024-03-08T14:32:51;13.5;;;8.799999999999999;;
15557;SDS011;7880;50.110;9.372;2024-03-08T14:37:53;14.661538461538463;;;9.200000000000001;;
15557;SDS011;7880;50.110;9.372;2024-03-08T14:42:56;16.47692307692307;;;9.238461538461538;;
15557;SDS011;7880;50.110;9.372;2024-03-08T14:48:00;13.823076923076922;;;8.700000000000001;;
15557;SDS011;7880;50.110;9.372;2024-03-08T14:53:06;15.130769230769225;;;8.530769230769229;;
15557;SDS011;7880;50.110;9.372;2024-03-08T14:58:07;12.838461538461539;;;8.27692307692308;;
15557;SDS011;7880;50.110;9.372;2024-03-08T15:03:16;13.89230769230769;;;8.900000000000002;;
15557;SDS011;7880;50.110;9.372;2024-03-08T15:08:19;14.376923076923076;;;8.469230769230771;;
15557;SDS011;7880;50.110;9.372;2024-03-08T15:13:23;14.592307692307696;;;8.961538461538462;;
15557;SDS011;7880;50.110;9.372;2024-03-08T15:18:26;16.94615384615384;;;8.86923076923077;;
15557;SDS011;7880;50.110;9.372;2024-03-08T15:23:28;11.60769230769231;;;7.669230769230769;;
15557;SDS011;7880;50.110;9.372;2024-03-08T15:28:37;12.069230769230767;;;7.730769230769231;;
15557;SDS011;7880;50.110;9.372;2024-03-08T15:33:41;15.199999999999998;;;7.900000000000001;;
15557;SDS011;7880;50.110;9.372;2024-03-08T15:38:38;11.476923076923073;;;7.56923076923077;;
15557;SDS011;7880;50.110;9.372;2024-03-08T15:43:41;15.669230769230769;;;8.36923076923077;;
15557;SDS011;7880;50.110;9.372;2024-03-08T15:48:44;14.507692307692306;;;8.05384615384615;;
15557;SDS011;7880;50.110;9.372;2024-03-08T15:53:53;13.876923076923076;;;7.799999999999998;;
15557;SDS011;7880;50.110;9.372;2024-03-08T15:58:55;12.961538461538462;;;8.061538461538463;;
15557;SDS011;7880;50.110;9.372;2024-03-08T16:03:58;15.030769230769229;;;7.93076923076923;;
15557;SDS011;7880;50.110;9.372;2024-03-08T16:09:03;13.907692307692304;;;7.969230769230771;;
15557;SDS011;7880;50.110;9.372;2024-03-08T16:14:05;14.630769230769225;;;8.030769230769229;;
15557;SDS011;7880;50.110;9.372;2024-03-08T16:19:09;12.761538461538464;;;7.161538461538461;;
15557;SDS011;7880;50.110;9.372;2024-03-08T16:24:14;12.453846153846154;;;7.299999999999998;;
15557;SDS011;7880;50.110;9.372;2024-03-08T16:29:20;12.223076923076924;;;7.099999999999999;;
15557;SDS011;7880;50.110;9.372;2024-03-08T16:34:21;15.269230769230765;;;8.200000000000001;;
15557;SDS011;7880;50.110;9.372;2024-03-08T16:39:26;13.66153846153846;;;8.099999999999998;;
15557;SDS011;7880;50.110;9.372;2024-03-08T16:44:31;12.561538461538458;;;8.299999999999999;;
15557;SDS011;7880;50.110;9.372;2024-03-08T16:49:31;13.699999999999998;;;8.5;;
15557;SDS011;7880;50.110;9.372;2024-03-08T16:54:34;14.369230769230775;;;8.36153846153846;;
15557;SDS011;7880;50.110;9.372;2024-03-08T16:59:36;11.869230769230775;;;7.5;;
15557;SDS011;7880;50.110;9.372;2024-03-08T17:04:42;12.946153846153843;;;7.769230769230769;;
15557;SDS011;7880;50.110;9.372;2024-03-08T17:09:41;13.069230769230767;;;7.661538461538461;;
15557;SDS011;7880;50.110;9.372;2024-03-08T17:14:45;14.89230769230769;;;9.069230769230769;;
15557;SDS011;7880;50.110;9.372;2024-03-08T17:19:50;17.13076923076923;;;9.530769230769229;;
15557;SDS011;7880;50.110;9.372;2024-03-08T17:24:55;20.069230769230767;;;7.900000000000001;;
15557;SDS011;7880;50.110;9.372;2024-03-08T17:29:55;18.36923076923077;;;8.799999999999999;;
15557;SDS011;7880;50.110;9.372;2024-03-08T17:35:00;15.123076923076924;;;8.592307692307692;;
15557;SDS011;7880;50.110;9.372;2024-03-08T17:40:09;10.976923076923075;;;7.476923076923076;;
15557;SDS011;7880;50.110;9.372;2024-03-08T17:45:09;13.0;;;7.769230769230769;;
15557;SDS011;7880;50.110;9.372;2024-03-08T17:50:14;18.53076923076923;;;10.36153846153846;;
15557;SDS011;7880;50.110;9.372;2024-03-08T17:55:19;17.892307692307693;;;9.592307692307692;;
15557;SDS011;7880;50.110;9.372;2024-03-08T18:00:18;14.407692307692304;;;8.200000000000001;;
15557;SDS011;7880;50.110;9.372;2024-03-08T18:05:19;15.523076923076928;;;8.261538461538464;;
15557;SDS011;7880;50.110;9.372;2024-03-08T18:10:22;15.176923076923082;;;8.16153846153846;;
15557;SDS011;7880;50.110;9.372;2024-03-08T18:15:31;16.292307692307688;;;8.876923076923076;;
15557;SDS011;7880;50.110;9.372;2024-03-08T18:19:10;11.63846153846154;;;8.238461538461536;;
15557;SDS011;7880;50.110;9.372;2024-03-08T18:24:12;10.884615384615389;;;6.761538461538464;;
15557;SDS011;7880;50.110;9.372;2024-03-08T18:29:20;11.338461538461539;;;7.200000000000002;;
15557;SDS011;7880;50.110;9.372;2024-03-08T18:34:20;12.538461538461538;;;7.469230769230771;;
15557;SDS011;7880;50.110;9.372;2024-03-08T18:39:27;15.707692307692307;;;6.561538461538462;;
15557;SDS011;7880;50.110;9.372;2024-03-08T18:44:24;14.223076923076924;;;7.33846153846154;;
15557;SDS011;7880;50.110;9.372;2024-03-08T18:49:30;14.969230769230771;;;6.799999999999998;;
15557;SDS011;7880;50.110;9.372;2024-03-08T18:54:34;11.66923076923077;;;6.738461538461536;;
15557;SDS011;7880;50.110;9.372;2024-03-08T18:59:35;10.599999999999998;;;6.56923076923077;;
15557;SDS011;7880;50.110;9.372;2024-03-08T19:04:41;12.530769230769229;;;6.93076923076923;;
15557;SDS011;7880;50.110;9.372;2024-03-08T19:09:45;10.33076923076923;;;5.661538461538462;;
15557;SDS011;7880;50.110;9.372;2024-03-08T19:14:51;9.83076923076923;;;6.299999999999998;;
15557;SDS011;7880;50.110;9.372;2024-03-08T19:19:56;11.599999999999996;;;5.93076923076923;;
15557;SDS011;7880;50.110;9.372;2024-03-08T19:24:58;13.692307692307692;;;8.030769230769229;;
15557;SDS011;7880;50.110;9.372;2024-03-08T19:30:05;9.238461538461538;;;5.976923076923076;;
15557;SDS011;7880;50.110;9.372;2024-03-08T19:35:18;14.230769230769235;;;6.5;;
15557;SDS011;7880;50.110;9.372;2024-03-08T19:40:14;10.546153846153848;;;6.238461538461536;;
15557;SDS011;7880;50.110;9.372;2024-03-08T19:45:13;11.238461538461536;;;7.06923076923077;;
15557;SDS011;7880;50.110;9.372;2024-03-08T19:50:15;12.592307692307696;;;7.130769230769232;;
15557;SDS011;7880;50.110;9.372;2024-03-08T19:55:18;10.06153846153846;;;6.130769230769232;;
15557;SDS011;7880;50.110;9.372;2024-03-08T20:00:26;12.261538461538464;;;6.830769230769231;;
15557;SDS011;7880;50.110;9.372;2024-03-08T20:05:25;11.546153846153846;;;6.169230769230769;;
15557;SDS011;7880;50.110;9.372;2024-03-08T20:10:26;9.89230769230769;;;6.092307692307691;;
15557;SDS011;7880;50.110;9.372;2024-03-08T20:15:31;10.299999999999999;;;6.130769230769232;;
15557;SDS011;7880;50.110;9.372;2024-03-08T20:20:49;12.961538461538462;;;7.130769230769232;;
15557;SDS011;7880;50.110;9.372;2024-03-08T20:25:37;10.723076923076924;;;6.630769230769232;;
15557;SDS011;7880;50.110;9.372;2024-03-08T20:30:42;11.030769230769229;;;7.400000000000001;;
15557;SDS011;7880;50.110;9.372;2024-03-08T20:35:49;13.907692307692304;;;7.799999999999998;;
15557;SDS011;7880;50.110;9.372;2024-03-08T20:40:47;12.423076923076918;;;6.961538461538459;;
15557;SDS011;7880;50.110;9.372;2024-03-08T20:45:54;16.138461538461538;;;8.0;;
15557;SDS011;7880;50.110;9.372;2024-03-08T20:50:55;14.984615384615385;;;7.261538461538464;;
15557;SDS011;7880;50.110;9.372;2024-03-08T20:55:59;14.330769230769231;;;8.330769230769231;;
15557;SDS011;7880;50.110;9.372;2024-03-08T21:01:04;13.269230769230765;;;7.799999999999998;;
15557;SDS011;7880;50.110;9.372;2024-03-08T21:06:07;13.623076923076924;;;7.89230769230769;;
15557;SDS011;7880;50.110;9.372;2024-03-08T21:11:10;13.36153846153846;;;8.86923076923077;;
15557;SDS011;7880;50.110;9.372;2024-03-08T21:16:09;17.23846153846154;;;8.438461538461537;;
15557;SDS011;7880;50.110;9.372;2024-03-08T21:21:13;15.946153846153843;;;9.169230769230769;;
15557;SDS011;7880;50.110;9.372;2024-03-08T21:26:16;15.99230769230769;;;8.530769230769229;;
15557;SDS011;7880;50.110;9.372;2024-03-08T21:31:24;12.823076923076924;;;8.330769230769231;;
15557;SDS011;7880;50.110;9.372;2024-03-08T21:36:24;13.592307692307696;;;8.16153846153846;;
15557;SDS011;7880;50.110;9.372;2024-03-08T21:41:34;14.199999999999998;;;8.700000000000001;;
15557;SDS011;7880;50.110;9.372;2024-03-08T21:46:30;15.869230769230771;;;9.96923076923077;;
15557;SDS011;7880;50.110;9.372;2024-03-08T21:51:32;14.49230769230769;;;9.200000000000001;;
15557;SDS011;7880;50.110;9.372;2024-03-08T21:56:35;16.730769230769234;;;9.099999999999998;;
15557;SDS011;7880;50.110;9.372;2024-03-08T22:01:36;17.623076923076923;;;9.561538461538461;;
15557;SDS011;7880;50.110;9.372;2024-03-08T22:06:39;17.092307692307696;;;9.569230769230769;;